Time;durP1;ratioP1;P1;durP2;ratioP2;P2;SDS_P1;SDS_P2;PMS_P1;PMS_P2;Temp;Humidity;BMP_temperature;BMP_pressure;BME280_temperature;BME280_humidity;BME280_pressure;Samples;Min_cycle;Max_cycle;Signal;HPM_P1;HPM_P2
2023/05/31 02:42:09;;;;;;;5.78;1.80;;;;;;;14.94;43.14;100232.84;1087025;54;20015;-85
2023/05/31 02:46:48;;;;;;;6.63;2.40;;;;;;;14.88;43.31;100235.34;1088315;54;20063;-88
2023/05/31 09:13:41;;;;;;;4.55;2.15;;;;;;;23.95;26.76;100171.50;1087462;54;20030;-86
2023/05/31 09:15:51;;;;;;;5.63;2.28;;;;;;;23.83;27.12;100172.22;1087548;54;20041;-86
2023/05/31 09:27:15;;;;;;;7.45;2.47;;;;;;;23.74;26.87;100168.16;1087727;39;20953;-85
2023/05/31 09:34:42;;;;;;;6.32;2.13;;;;;;;24.71;26.02;100160.09;1080403;39;20920;-86
2023/05/31 09:38:42;;;;;;;5.20;2.10;;;;;;;24.23;26.51;100168.13;1084931;54;20985;31
2023/05/31 09:40:57;;;;;;;5.50;2.35;;;;;;;24.44;26.16;100153.13;1067802;54;20101;31
2023/05/31 09:43:32;;;;;;;7.97;2.30;;;;;;;24.70;26.07;100151.06;1087473;54;20030;-84
2023/05/31 09:45:50;;;;;;;5.28;2.17;;;;;;;24.48;26.18;100149.91;1088912;54;20014;-84
2023/05/31 09:48:02;;;;;;;6.28;2.60;;;;;;;24.45;26.10;100160.28;1079568;54;19975;-86
2023/05/31 09:50:21;;;;;;;5.65;2.30;;;;;;;24.33;25.57;100148.47;1074156;54;20117;-85
2023/05/31 09:51:26;;;;;;;5.20;2.60;;;;;;;24.50;25.44;100151.38;1077359;46;21173;31
2023/05/31 09:53:32;;;;;;;6.00;2.20;;;;;;;24.10;25.87;100144.59;1076569;54;20036;31
2023/05/31 09:54:40;;;;;;;6.67;2.20;;;;;;;24.11;25.95;100140.81;1068473;47;20070;31
2023/05/31 09:57:03;;;;;;;7.07;2.33;;;;;;;24.58;25.63;100150.19;1087374;54;20034;-87
2023/05/31 09:58:30;;;;;;;5.07;2.33;;;;;;;24.84;24.90;100142.66;1083385;47;20105;-87
2023/05/31 10:00:37;;;;;;;4.60;2.08;;;;;;;25.19;24.90;100142.63;1087915;54;20064;-86
2023/05/31 10:05:54;;;;;;;5.68;2.20;;;;;;;25.41;23.45;100146.69;1082881;54;20037;-85
2023/05/31 10:11:13;;;;;;;7.82;2.70;;;;;;;24.68;24.12;100153.19;1088750;54;20015;-89
2023/05/31 10:12:15;;;;;;;8.70;2.23;;;;;;;24.83;24.24;100147.28;1080067;39;20323;31
2023/05/31 10:16:08;;;;;;;6.00;2.50;;;;;;;24.56;24.71;100150.41;1080113;39;20243;31
2023/05/31 10:17:14;;;;;;;4.78;1.80;;;;;;;24.65;24.77;100148.19;1089568;39;20917;-86
2023/05/31 10:20:51;;;;;;;4.72;2.50;;;;;;;25.21;24.18;100145.94;1086208;54;20034;-85
2023/05/31 10:21:53;;;;;;;5.68;2.22;;;;;;;25.43;23.84;100141.78;1079584;47;20034;-84
2023/05/31 10:23:03;;;;;;;8.50;2.28;;;;;;;25.33;23.96;100143.19;1082468;39;21505;-85
2023/05/31 10:24:10;;;;;;;;;;;;;;;25.46;23.80;100138.56;1087788;54;20026;-86
2023/05/31 10:25:22;;;;;;;7.38;1.90;;;;;;;25.81;23.36;100140.34;1088087;54;19950;-85
2023/05/31 10:27:40;;;;;;;5.80;2.00;;;;;;;25.42;23.94;100134.63;1071328;54;21573;31
2023/05/31 10:28:45;;;;;;;6.65;2.30;;;;;;;25.73;23.57;100138.84;1082779;47;20038;-86
2023/05/31 10:29:55;;;;;;;6.18;2.42;;;;;;;26.12;23.35;100140.97;1086587;47;20014;31
2023/05/31 10:30:57;;;;;;;;;;;;;;;26.35;22.67;100128.22;1087789;47;20043;-84
2023/05/31 10:33:09;;;;;;;6.95;2.08;;;;;;;25.99;23.41;100129.19;1087747;54;20011;-84
2023/05/31 10:36:37;;;;;;;5.57;2.28;;;;;;;25.60;23.05;100119.97;1079302;47;22182;-85
2023/05/31 10:39:09;;;;;;;7.55;2.50;;;;;;;25.44;23.35;100140.69;1083594;54;20015;31
2023/05/31 10:40:22;;;;;;;11.25;2.97;;;;;;;24.98;23.32;100144.06;1083187;47;20006;31
2023/05/31 10:41:31;;;;;;;8.23;2.40;;;;;;;25.17;23.53;100127.53;1086156;47;19943;31
2023/05/31 10:42:34;;;;;;;5.80;2.25;;;;;;;25.20;23.44;100135.25;1071578;47;20327;31
2023/05/31 10:43:51;;;;;;;12.25;2.65;;;;;;;25.08;23.38;100127.88;1072733;39;20340;31
2023/05/31 10:44:53;;;;;;;6.47;2.40;;;;;;;25.15;23.30;100133.25;1078909;47;21338;31
2023/05/31 10:46:03;;;;;;;7.10;2.10;;;;;;;25.07;23.27;100136.34;1082544;47;21403;31
2023/05/31 10:47:09;;;;;;;;;;;;;;;24.99;23.53;100132.06;1075341;47;21204;31
2023/05/31 10:48:21;;;;;;;5.57;2.05;;;;;;;25.22;23.31;100125.72;1070714;47;20014;31
2023/05/31 10:51:55;;;;;;;6.25;1.83;;;;;;;26.11;22.65;100122.88;1070481;54;20050;-86
2023/05/31 10:54:00;;;;;;;7.95;2.17;;;;;;;26.15;22.52;100121.31;1088446;54;20063;-87
2023/05/31 10:56:30;;;;;;;5.30;2.50;;;;;;;25.34;22.77;100122.16;1071137;54;20044;31
2023/05/31 10:57:37;;;;;;;5.95;2.15;;;;;;;25.17;23.32;100124.78;1072599;39;21205;31
2023/05/31 10:59:48;;;;;;;9.35;2.30;;;;;;;25.35;22.82;100127.38;1074538;39;20387;-86
2023/05/31 11:00:53;;;;;;;6.00;2.00;;;;;;;25.76;22.65;100121.09;1088096;54;20030;-83
2023/05/31 11:03:03;;;;;;;7.40;2.72;;;;;;;25.34;23.11;100120.22;1075952;54;20042;31
2023/05/31 11:04:21;;;;;;;5.80;2.58;;;;;;;25.19;23.27;100118.00;1072834;54;20910;31
2023/05/31 11:07:43;;;;;;;5.47;2.38;;;;;;;24.78;23.34;100125.28;1087573;54;20126;-86
2023/05/31 11:09:15;;;;;;;6.30;1.98;;;;;;;25.24;22.96;100109.06;1086150;54;20069;-83
2023/05/31 11:11:21;;;;;;;6.68;2.13;;;;;;;25.12;22.95;100116.47;1080060;54;20038;-85
2023/05/31 11:12:36;;;;;;;8.77;1.80;;;;;;;25.17;22.97;100116.59;1084669;54;21218;31
2023/05/31 11:15:03;;;;;;;5.55;2.20;;;;;;;24.94;23.59;100121.00;1079469;54;20038;31
2023/05/31 11:17:30;;;;;;;4.10;1.75;;;;;;;24.83;23.44;100109.00;1088453;54;20011;-86
2023/05/31 11:21:01;;;;;;;6.75;1.90;;;;;;;25.00;23.40;100106.38;1081869;54;20404;-85
2023/05/31 11:22:07;;;;;;;5.85;2.65;;;;;;;24.53;23.70;100120.00;1067882;46;21236;31
2023/05/31 11:23:34;;;;;;;6.25;2.60;;;;;;;24.44;23.89;100114.91;1068644;46;20126;31
2023/05/31 11:24:38;;;;;;;7.70;2.30;;;;;;;24.36;24.02;100114.38;1071937;46;20115;31
2023/05/31 11:27:13;;;;;;;9.10;2.65;;;;;;;24.58;24.12;100111.91;1086538;54;21186;-84
2023/05/31 11:28:16;;;;;;;6.57;2.60;;;;;;;24.48;24.30;100109.78;1067539;46;20034;31
2023/05/31 11:32:08;;;;;;;4.53;2.20;;;;;;;24.60;24.46;100087.94;1067766;54;20046;31
2023/05/31 11:33:15;;;;;;;5.07;2.00;;;;;;;24.57;24.64;100099.31;1079200;46;20056;31
2023/05/31 11:37:06;;;;;;;5.07;2.05;;;;;;;24.85;24.03;100097.81;1078682;47;21271;-87
2023/05/31 11:38:11;;;;;;;5.00;1.90;;;;;;;24.74;23.72;100094.88;1077485;54;20046;-87
2023/05/31 11:40:50;;;;;;;6.25;2.13;;;;;;;24.53;23.91;100101.69;1076015;54;20879;31
2023/05/31 11:41:53;;;;;;;10.23;2.53;;;;;;;24.55;24.05;100099.56;1071663;47;21066;31
2023/05/31 11:42:57;;;;;;;8.18;2.20;;;;;;;24.44;24.10;100098.50;1078852;47;21636;31
2023/05/31 11:46:58;;;;;;;5.15;2.08;;;;;;;24.77;23.99;100094.38;1087647;54;20023;-87
2023/05/31 11:50:22;;;;;;;4.68;1.80;;;;;;;24.58;23.38;100090.91;1069083;54;21364;-86
2023/05/31 11:52:35;;;;;;;4.97;2.35;;;;;;;24.49;23.61;100091.47;1081539;39;21038;31
2023/05/31 11:53:37;;;;;;;7.55;2.17;;;;;;;24.71;23.72;100095.34;1088311;39;20306;-84
2023/05/31 11:54:45;;;;;;;5.40;1.92;;;;;;;24.79;23.48;100079.66;1081018;46;20122;-83
2023/05/31 11:55:54;;;;;;;6.00;2.20;;;;;;;24.80;23.33;100089.50;1081907;46;20070;31
2023/05/31 11:58:15;;;;;;;6.13;1.90;;;;;;;24.73;23.35;100081.44;1067958;54;20042;31
2023/05/31 11:59:18;;;;;;;6.53;2.00;;;;;;;24.81;23.17;100081.06;1068355;46;20526;31
2023/05/31 12:00:31;;;;;;;5.82;2.00;;;;;;;24.91;23.27;100083.22;1070475;54;20282;-85
2023/05/31 12:01:48;;;;;;;5.00;2.03;;;;;;;24.80;22.87;100075.84;1078692;46;20030;-85
2023/05/31 12:03:02;;;;;;;4.13;1.90;;;;;;;24.97;22.83;100081.44;1085642;47;20029;-86
2023/05/31 12:05:14;;;;;;;6.45;2.17;;;;;;;24.96;22.95;100080.56;1071197;54;20099;-86
2023/05/31 12:08:47;;;;;;;3.30;1.40;;;;;;;25.37;22.35;100062.31;1087715;47;20022;-86
2023/05/31 12:10:54;;;;;;;4.63;1.90;;;;;;;25.49;22.59;100056.00;1087575;54;21125;-86
2023/05/31 12:13:02;;;;;;;8.37;2.83;;;;;;;24.83;23.04;100061.72;1068168;46;20051;31
2023/05/31 12:15:11;;;;;;;12.77;2.72;;;;;;;24.69;23.20;100067.41;1089027;54;20219;-85
2023/05/31 12:16:14;;;;;;;8.05;2.25;;;;;;;24.51;23.24;100078.41;1068889;46;21625;31
2023/05/31 12:17:19;;;;;;;4.75;2.05;;;;;;;24.64;23.31;100072.75;1073213;39;21596;31
2023/05/31 12:18:23;;;;;;;6.85;2.60;;;;;;;24.58;23.69;100069.06;1093554;39;21429;31
2023/05/31 12:19:30;;;;;;;6.35;2.50;;;;;;;24.70;23.50;100066.34;1068604;46;22186;31
2023/05/31 12:20:33;;;;;;;5.60;1.80;;;;;;;24.81;23.30;100069.31;1071928;46;20950;31
2023/05/31 12:21:38;;;;;;;5.45;2.15;;;;;;;24.84;23.09;100055.19;1087972;46;20068;-86
2023/05/31 12:23:46;;;;;;;5.03;1.93;;;;;;;24.95;23.16;100062.50;1071938;54;20424;31
2023/05/31 12:26:17;;;;;;;5.93;2.10;;;;;;;24.55;23.16;100052.31;1068733;54;20861;31
2023/05/31 12:27:19;;;;;;;5.97;1.67;;;;;;;24.54;23.28;100058.84;1068755;39;22215;31
2023/05/31 12:29:41;;;;;;;5.47;1.87;;;;;;;24.93;23.17;100051.00;1085003;54;20026;-87
2023/05/31 12:30:44;;;;;;;5.88;2.28;;;;;;;25.06;22.65;100045.25;1087789;54;20117;-86
2023/05/31 12:32:52;;;;;;;5.35;2.20;;;;;;;24.84;22.65;100039.59;1075241;54;20914;31
2023/05/31 12:33:54;;;;;;;7.20;2.33;;;;;;;24.57;22.52;100044.69;1067935;54;20200;31
2023/05/31 12:36:15;;;;;;;6.10;2.10;;;;;;;24.80;22.70;100037.56;1098190;39;21311;31
2023/05/31 12:40:57;;;;;;;4.85;2.10;;;;;;;25.19;22.36;100037.88;1115227;39;21384;31
2023/05/31 12:44:16;;;;;;;3.97;1.58;;;;;;;25.10;22.34;100036.59;1071523;54;20042;-88
2023/05/31 12:45:21;;;;;;;4.65;2.08;;;;;;;25.08;22.19;100028.59;1067578;46;21139;31
2023/05/31 12:49:15;;;;;;;10.05;2.20;;;;;;;25.04;22.52;100027.44;1067449;54;21338;31
2023/05/31 12:50:20;;;;;;;5.20;2.20;;;;;;;25.10;22.23;100033.84;1068259;39;22052;31
2023/05/31 12:51:25;;;;;;;6.20;1.90;;;;;;;25.16;22.06;100035.59;1067394;47;20864;31
2023/05/31 12:53:46;;;;;;;7.10;2.20;;;;;;;25.05;22.16;100035.38;1067057;54;20814;31
2023/05/31 12:55:04;;;;;;;5.82;2.08;;;;;;;25.25;22.08;100027.88;1086130;47;20034;-85
2023/05/31 12:56:10;;;;;;;6.60;2.20;;;;;;;25.19;21.58;100035.94;1075726;54;20022;31
2023/05/31 12:57:14;;;;;;;6.72;2.30;;;;;;;25.30;21.50;100030.69;1087452;47;20034;-87
2023/05/31 12:58:17;;;;;;;6.22;2.00;;;;;;;25.15;21.48;100028.47;1085754;54;20022;31
2023/05/31 12:59:36;;;;;;;5.65;2.08;;;;;;;25.14;21.52;100022.19;1083972;47;20034;-85
2023/05/31 13:00:51;;;;;;;4.35;1.60;;;;;;;25.36;21.58;100029.72;1087237;54;20038;-84
2023/05/31 13:04:32;;;;;;;4.28;1.67;;;;;;;25.57;21.51;100027.41;1087695;54;20010;-87
2023/05/31 13:05:37;;;;;;;5.50;2.08;;;;;;;25.45;21.17;100027.44;1082514;39;21540;-83
2023/05/31 13:06:51;;;;;;;4.43;1.92;;;;;;;25.30;21.12;100026.06;1076842;46;20050;-88
2023/05/31 13:07:54;;;;;;;6.37;1.70;;;;;;;25.31;21.46;100022.25;1080719;46;21091;31
2023/05/31 13:10:01;;;;;;;4.72;1.92;;;;;;;25.35;21.10;100014.38;1088050;54;20018;-85
2023/05/31 13:13:24;;;;;;;9.48;2.15;;;;;;;25.70;21.47;100011.50;1087720;54;20810;-85
2023/05/31 13:14:27;;;;;;;3.75;1.52;;;;;;;25.90;21.37;100006.66;1086904;47;20026;-85
2023/05/31 13:16:42;;;;;;;5.97;1.98;;;;;;;25.60;20.54;100007.75;1078222;54;20053;-85
2023/05/31 13:18:51;;;;;;;7.20;1.77;;;;;;;25.34;20.48;100021.75;1082112;47;20034;-85
2023/05/31 13:19:55;;;;;;;7.68;2.03;;;;;;;25.42;20.51;100022.47;1087773;47;20047;-84
2023/05/31 13:20:58;;;;;;;5.47;1.80;;;;;;;25.63;20.34;100013.56;1087779;47;20102;-88
2023/05/31 13:22:02;;;;;;;7.38;2.03;;;;;;;25.54;20.40;100009.56;1087704;47;20687;-86
2023/05/31 13:23:03;;;;;;;4.72;1.67;;;;;;;25.69;20.07;100007.09;1087355;47;20539;-84
2023/05/31 13:24:10;;;;;;;6.05;1.90;;;;;;;25.90;19.96;100012.13;1087146;54;20031;-85
2023/05/31 13:25:15;;;;;;;4.90;1.70;;;;;;;25.79;19.93;100011.94;1087257;46;20038;-83
2023/05/31 13:26:43;;;;;;;4.25;1.52;;;;;;;25.83;19.57;100017.75;1087131;47;20034;-84
2023/05/31 13:27:48;;;;;;;8.40;2.15;;;;;;;25.90;19.49;100002.00;1087085;46;20052;-82
2023/05/31 13:28:56;;;;;;;4.80;1.73;;;;;;;26.06;19.49;100021.44;1087226;47;20022;-87
2023/05/31 13:30:00;;;;;;;8.15;2.58;;;;;;;25.72;19.37;100004.94;1087285;47;20082;-86
2023/05/31 13:31:04;;;;;;;5.15;1.90;;;;;;;25.63;19.30;100001.81;1087265;47;20030;-84
2023/05/31 13:32:11;;;;;;;7.18;1.73;;;;;;;25.61;19.61;100002.03;1087318;47;20134;-84
2023/05/31 13:33:12;;;;;;;5.47;1.58;;;;;;;25.77;19.49;100010.53;1086972;47;20023;-85
2023/05/31 13:34:17;;;;;;;4.22;1.60;;;;;;;25.93;19.55;100001.50;1087022;47;20022;-85
2023/05/31 13:35:20;;;;;;;5.13;1.80;;;;;;;25.83;19.33;100004.91;1087222;46;21375;-84
2023/05/31 13:36:25;;;;;;;5.15;1.80;;;;;;;25.97;19.35;99991.72;1087255;46;20026;-86
2023/05/31 13:37:26;;;;;;;4.20;1.65;;;;;;;26.15;19.13;99998.06;1087062;54;20038;-85
2023/05/31 13:38:30;;;;;;;4.22;1.83;;;;;;;26.24;19.10;99996.56;1086805;47;20034;-83
2023/05/31 13:39:34;;;;;;;4.93;1.98;;;;;;;26.33;19.22;100001.63;1087260;54;20870;-85
2023/05/31 13:40:37;;;;;;;6.68;1.90;;;;;;;26.05;19.12;99997.88;1087446;46;20049;-86
2023/05/31 13:41:40;;;;;;;6.45;2.10;;;;;;;25.89;19.25;99989.38;1087269;54;20033;-87
2023/05/31 13:42:44;;;;;;;4.32;1.90;;;;;;;25.85;19.03;99988.22;1087228;46;20026;-84
2023/05/31 13:43:48;;;;;;;4.60;1.95;;;;;;;25.87;19.09;99991.56;1087083;54;20838;-85
2023/05/31 13:44:49;;;;;;;7.45;2.28;;;;;;;25.82;19.08;99994.19;1087093;54;20027;-85
2023/05/31 13:45:54;;;;;;;5.35;2.10;;;;;;;26.00;19.33;99985.72;1090387;39;20269;-85
2023/05/31 13:46:55;;;;;;;4.85;2.20;;;;;;;26.10;19.48;99989.75;1086919;54;20124;-82
2023/05/31 13:48:01;;;;;;;6.00;2.00;;;;;;;25.96;18.94;99990.06;1086984;54;20030;-83
2023/05/31 13:49:03;;;;;;;9.77;2.25;;;;;;;25.83;19.28;99988.47;1088220;46;20046;-84
2023/05/31 13:50:08;;;;;;;4.60;1.80;;;;;;;25.83;19.10;99990.38;1087040;54;20057;-86
2023/05/31 13:51:10;;;;;;;6.95;1.90;;;;;;;25.82;19.01;99986.81;1086929;47;20049;-83
2023/05/31 13:52:15;;;;;;;3.35;1.55;;;;;;;25.83;18.97;99984.91;1087301;39;20738;-85
2023/05/31 13:53:16;;;;;;;4.85;1.70;;;;;;;25.91;18.86;99991.88;1086963;47;20822;-83
2023/05/31 13:54:19;;;;;;;3.90;1.73;;;;;;;26.03;18.94;99978.09;1087021;47;20098;-84
2023/05/31 13:55:25;;;;;;;4.20;1.52;;;;;;;25.95;18.65;99985.66;1087311;47;20026;-83
2023/05/31 13:56:27;;;;;;;4.53;1.75;;;;;;;26.05;18.74;99982.25;1087122;46;20186;-85
2023/05/31 13:57:30;;;;;;;4.85;1.80;;;;;;;26.14;18.85;99979.97;1087039;47;20015;-84
2023/05/31 13:58:32;;;;;;;5.85;1.70;;;;;;;26.20;18.94;99978.13;1087448;54;20030;-84
2023/05/31 13:59:35;;;;;;;4.22;1.95;;;;;;;26.00;19.29;99971.22;1087010;47;20616;-88
2023/05/31 14:00:48;;;;;;;4.18;1.63;;;;;;;25.97;19.23;99977.19;1087070;47;20038;-85
2023/05/31 14:01:49;;;;;;;4.70;1.85;;;;;;;25.92;19.45;99977.94;1095278;39;21020;-85
2023/05/31 14:03:01;;;;;;;4.18;1.88;;;;;;;26.00;19.36;99966.56;1087147;47;20054;-86
2023/05/31 14:11:35;;;;;;;4.82;2.30;;;;;;;26.64;18.97;99961.78;1087423;54;20023;-84
2023/05/31 14:13:06;;;;;;;6.88;2.17;;;;;;;26.50;18.38;99955.00;1087362;47;20023;-85
2023/05/31 14:14:07;;;;;;;5.97;2.22;;;;;;;27.01;18.07;99965.84;1086915;47;20030;-81
2023/05/31 14:15:14;;;;;;;6.38;1.95;;;;;;;27.04;17.90;99954.31;1090953;39;20335;-84
2023/05/31 14:16:18;;;;;;;6.68;2.25;;;;;;;27.07;17.58;99964.78;1087066;47;20033;-81
2023/05/31 14:17:23;;;;;;;8.18;2.15;;;;;;;27.23;17.48;99950.16;1089935;39;20452;-82
2023/05/31 14:18:25;;;;;;;5.60;2.00;;;;;;;27.31;17.69;99937.91;1087090;54;20055;-84
2023/05/31 14:19:29;;;;;;;4.95;2.20;;;;;;;27.49;17.47;99944.94;1087017;54;20040;-85
2023/05/31 14:20:30;;;;;;;6.40;2.00;;;;;;;27.91;17.32;99948.06;1087308;54;20026;-85
2023/05/31 14:21:34;;;;;;;6.22;1.85;;;;;;;27.97;17.23;99952.50;1087450;47;20026;-83
2023/05/31 14:24:47;;;;;;;7.55;2.20;;;;;;;27.47;17.48;99947.16;1089222;39;21210;-83
2023/05/31 14:25:49;;;;;;;6.38;1.92;;;;;;;27.87;17.49;99950.50;1087183;47;20640;-83
2023/05/31 14:26:59;;;;;;;6.30;1.85;;;;;;;28.40;16.93;99936.88;1086891;54;20030;-84
2023/05/31 14:28:01;;;;;;;5.05;2.05;;;;;;;28.15;16.71;99952.09;1100223;31;21124;-85
2023/05/31 14:29:05;;;;;;;5.53;1.95;;;;;;;28.13;16.84;99947.97;1087482;47;20090;-83
2023/05/31 14:30:09;;;;;;;7.80;2.35;;;;;;;27.77;17.00;99944.94;1080557;47;20034;-83
2023/05/31 14:31:12;;;;;;;3.83;1.80;;;;;;;27.55;17.39;99943.09;1087795;47;20951;-81
2023/05/31 14:32:18;;;;;;;4.75;1.60;;;;;;;27.79;17.67;99940.81;1087486;47;20023;-81
2023/05/31 14:33:28;;;;;;;6.65;2.17;;;;;;;28.14;17.06;99941.38;1087273;47;20106;-85
2023/05/31 14:35:35;;;;;;;4.05;1.55;;;;;;;28.88;16.84;99931.34;1087382;54;20042;-83
2023/05/31 14:36:38;;;;;;;4.15;1.75;;;;;;;28.63;17.11;99929.28;1094743;39;20698;-82
2023/05/31 14:37:43;;;;;;;9.23;2.40;;;;;;;28.30;17.64;99936.81;1087487;47;20054;-84
2023/05/31 14:41:06;;;;;;;4.82;2.00;;;;;;;27.82;18.01;99931.25;1087613;54;20010;-84
2023/05/31 14:42:10;;;;;;;7.03;2.22;;;;;;;27.79;17.91;99932.59;1087459;47;20039;-83
2023/05/31 14:43:14;;;;;;;10.75;2.17;;;;;;;27.65;18.19;99926.69;1087598;47;20063;-83
2023/05/31 14:44:17;;;;;;;4.63;1.98;;;;;;;27.68;18.22;99936.31;1087021;47;20027;-82
2023/05/31 14:45:21;;;;;;;5.15;2.00;;;;;;;27.65;18.04;99931.38;1086964;47;20032;-84
2023/05/31 14:46:23;;;;;;;6.97;2.47;;;;;;;27.38;18.58;99935.75;1086997;47;20049;-83
2023/05/31 14:47:27;;;;;;;7.63;1.95;;;;;;;27.43;18.58;99937.75;1086927;54;20472;-84
2023/05/31 14:48:28;;;;;;;5.78;1.70;;;;;;;27.48;18.64;99926.00;1086994;54;20026;-83
2023/05/31 14:49:32;;;;;;;7.15;2.58;;;;;;;27.37;18.55;99936.03;1089378;39;20356;-83
2023/05/31 14:50:33;;;;;;;5.28;2.03;;;;;;;27.45;18.76;99937.50;1086891;54;20030;-83
2023/05/31 14:51:37;;;;;;;4.65;2.40;;;;;;;27.39;18.33;99939.34;1086887;54;20082;-83
2023/05/31 14:52:41;;;;;;;7.00;2.08;;;;;;;27.33;17.92;99934.88;1087051;47;20023;-83
2023/05/31 14:53:46;;;;;;;5.57;2.30;;;;;;;27.20;18.13;99927.91;1086872;54;20034;-83
2023/05/31 14:54:47;;;;;;;5.35;1.80;;;;;;;27.34;17.97;99937.38;1086828;54;20116;-82
2023/05/31 14:55:51;;;;;;;6.15;2.10;;;;;;;27.48;18.01;99932.34;1086937;47;20030;-83
2023/05/31 14:56:55;;;;;;;4.63;1.80;;;;;;;27.46;18.04;99925.44;1087849;31;20975;-84
2023/05/31 14:58:00;;;;;;;5.63;1.85;;;;;;;27.22;18.11;99929.28;1087060;54;20070;-82
2023/05/31 14:59:03;;;;;;;6.65;2.28;;;;;;;27.32;18.50;99930.47;1086888;54;20030;-84
2023/05/31 15:00:06;;;;;;;6.07;1.83;;;;;;;27.71;18.25;99933.06;1086865;54;20247;-83
2023/05/31 15:01:10;;;;;;;6.13;2.03;;;;;;;27.81;18.05;99926.84;1087007;54;20064;-82
2023/05/31 15:02:14;;;;;;;4.82;1.80;;;;;;;28.09;17.72;99931.19;1086874;54;20026;-82
2023/05/31 15:03:18;;;;;;;5.45;1.90;;;;;;;28.22;17.84;99929.09;1086956;47;20113;-83
2023/05/31 15:04:20;;;;;;;5.63;1.67;;;;;;;28.38;17.69;99930.00;1088019;46;20042;-82
2023/05/31 15:05:23;;;;;;;6.18;1.98;;;;;;;28.62;17.67;99922.16;1086993;54;20031;-83
2023/05/31 15:06:25;;;;;;;4.95;1.73;;;;;;;28.69;17.48;99921.88;1086910;47;20023;-82
2023/05/31 15:07:30;;;;;;;4.03;1.63;;;;;;;28.91;17.17;99924.47;1086746;54;20030;-81
2023/05/31 15:08:34;;;;;;;4.00;1.75;;;;;;;28.54;17.44;99919.88;1086835;47;20033;-83
2023/05/31 15:09:38;;;;;;;5.95;1.83;;;;;;;28.24;17.78;99921.41;1086848;54;20035;-82
2023/05/31 15:10:40;;;;;;;7.47;1.98;;;;;;;28.17;17.96;99922.44;1086688;47;20034;-83
2023/05/31 15:11:44;;;;;;;8.80;2.13;;;;;;;28.07;18.15;99922.38;1087082;39;20336;-85
2023/05/31 15:12:47;;;;;;;5.72;1.80;;;;;;;28.06;18.05;99920.69;1086751;54;20057;-82
2023/05/31 15:13:53;;;;;;;5.35;1.83;;;;;;;28.21;18.12;99922.75;1086727;47;20038;-81
2023/05/31 15:14:55;;;;;;;4.35;1.48;;;;;;;28.27;18.18;99920.84;1086791;47;20055;-83
2023/05/31 15:15:59;;;;;;;4.63;2.00;;;;;;;28.23;18.60;99915.06;1086570;47;20068;-80
2023/05/31 15:17:05;;;;;;;5.53;1.73;;;;;;;28.29;18.28;99913.19;1086824;54;20027;-83
2023/05/31 15:18:09;;;;;;;4.65;1.58;;;;;;;28.46;18.40;99916.56;1086749;47;20061;-82
2023/05/31 15:19:13;;;;;;;6.20;2.00;;;;;;;28.02;18.95;99923.13;1086838;47;20023;-82
2023/05/31 15:20:14;;;;;;;5.65;2.10;;;;;;;27.76;19.01;99927.63;1086675;47;20044;-85
2023/05/31 15:21:18;;;;;;;5.53;2.30;;;;;;;27.60;19.14;99929.41;1086534;47;20055;-82
2023/05/31 15:22:19;;;;;;;4.93;1.95;;;;;;;27.44;19.10;99931.19;1086734;54;20061;-84
2023/05/31 15:23:24;;;;;;;4.25;1.90;;;;;;;27.19;19.16;99929.81;1086982;47;20030;-83
2023/05/31 15:24:25;;;;;;;6.43;2.10;;;;;;;27.04;19.55;99926.91;1086779;54;20034;-85
2023/05/31 15:25:29;;;;;;;7.57;2.35;;;;;;;26.96;19.74;99930.09;1086903;47;20044;-84
2023/05/31 15:26:30;;;;;;;5.70;2.13;;;;;;;27.03;20.00;99926.09;1088153;39;20301;-84
2023/05/31 15:27:34;;;;;;;5.40;2.00;;;;;;;26.99;19.62;99927.66;1086737;47;20034;-84
2023/05/31 15:28:38;;;;;;;4.90;2.00;;;;;;;26.97;19.35;99924.34;1091853;39;20327;-84
2023/05/31 15:29:45;;;;;;;6.38;2.20;;;;;;;26.80;19.45;99918.13;1086976;47;20961;-84
2023/05/31 15:30:46;;;;;;;4.82;1.90;;;;;;;26.84;19.34;99927.50;1086749;54;20027;-83
2023/05/31 15:31:55;;;;;;;5.50;2.00;;;;;;;26.76;19.82;99920.50;1086654;54;20034;-83
2023/05/31 15:32:57;;;;;;;6.75;2.20;;;;;;;26.60;19.79;99925.81;1086819;54;20468;-83
2023/05/31 15:34:01;;;;;;;6.80;2.00;;;;;;;26.71;19.94;99923.22;1086712;54;20086;-83
2023/05/31 15:35:21;;;;;;;6.22;2.30;;;;;;;26.82;20.23;99921.44;1086602;47;20030;-84
2023/05/31 15:36:39;;;;;;;5.13;2.30;;;;;;;26.79;19.87;99931.00;1086706;47;20446;-82
2023/05/31 15:37:51;;;;;;;9.65;1.92;;;;;;;26.64;19.83;99923.41;1086868;47;20034;-82
2023/05/31 15:39:11;;;;;;;5.55;1.75;;;;;;;26.42;20.12;99920.66;1087146;54;20031;-84
2023/05/31 15:40:23;;;;;;;7.22;2.33;;;;;;;26.31;20.02;99920.50;1086863;47;20038;-82
2023/05/31 15:41:30;;;;;;;6.05;2.30;;;;;;;26.58;20.27;99918.94;1086981;47;20951;-85
2023/05/31 15:43:29;;;;;;;3.55;1.77;;;;;;;26.81;19.65;99914.28;1087178;39;20737;-83
2023/05/31 15:44:33;;;;;;;7.03;2.03;;;;;;;26.82;19.89;99922.28;1087082;47;20054;-83
2023/05/31 15:45:40;;;;;;;5.13;2.08;;;;;;;26.62;20.03;99912.69;1087035;54;20034;-85
2023/05/31 15:46:45;;;;;;;4.97;1.98;;;;;;;26.52;20.54;99915.31;1087157;54;20067;-83
2023/05/31 15:47:47;;;;;;;6.63;2.05;;;;;;;26.65;20.37;99916.84;1087215;54;20030;-82
2023/05/31 15:48:52;;;;;;;4.93;2.05;;;;;;;26.53;20.09;99911.47;1087320;54;20063;-85
2023/05/31 15:49:54;;;;;;;4.55;1.70;;;;;;;26.42;20.44;99920.66;1087313;46;20049;-85
2023/05/31 15:51:03;;;;;;;4.85;2.00;;;;;;;26.44;20.50;99915.75;1087538;47;20022;-83
2023/05/31 15:52:06;;;;;;;6.20;2.13;;;;;;;26.48;20.52;99908.66;1087279;54;20130;-83
2023/05/31 15:54:14;;;;;;;4.82;1.83;;;;;;;26.26;20.61;99917.66;1087910;54;20037;-83
2023/05/31 15:55:18;;;;;;;5.20;1.73;;;;;;;26.27;20.51;99913.84;1087776;54;20050;-85
2023/05/31 15:56:20;;;;;;;4.10;2.03;;;;;;;26.41;20.66;99910.75;1087588;47;20029;-85
2023/05/31 15:57:25;;;;;;;5.10;1.80;;;;;;;26.62;20.34;99909.94;1087337;54;20060;-84
2023/05/31 15:58:26;;;;;;;5.00;1.65;;;;;;;26.77;19.94;99908.50;1087211;47;20057;-83
2023/05/31 15:59:35;;;;;;;10.00;2.10;;;;;;;26.62;20.32;99903.63;1087101;54;20038;-84
2023/05/31 16:00:40;;;;;;;5.28;1.88;;;;;;;26.42;20.73;99898.72;1087190;46;20058;-83
2023/05/31 16:01:45;;;;;;;5.85;1.98;;;;;;;26.36;20.87;99896.97;1087162;46;20044;-84
2023/05/31 16:02:49;;;;;;;7.35;1.83;;;;;;;26.37;20.52;99902.22;1087092;54;20832;-84
2023/05/31 16:03:51;;;;;;;4.10;1.90;;;;;;;26.46;20.76;99906.19;1087004;47;20106;-84
2023/05/31 16:04:55;;;;;;;7.20;1.88;;;;;;;26.15;20.94;99904.94;1087176;46;20027;-83
2023/05/31 16:05:57;;;;;;;5.63;2.40;;;;;;;26.24;21.10;99899.84;1087010;54;20098;-83
2023/05/31 16:07:02;;;;;;;6.25;1.90;;;;;;;26.27;21.11;99902.09;1086977;47;20042;-82
2023/05/31 16:08:08;;;;;;;4.80;2.10;;;;;;;26.16;21.15;99895.66;1087031;54;20968;-83
2023/05/31 16:15:54;;;;;;;5.35;1.85;;;;;;;26.49;20.85;99893.88;1087597;54;20027;-82
2023/05/31 16:16:56;;;;;;;4.30;2.00;;;;;;;26.59;21.36;99896.75;1087155;47;20045;-86
2023/05/31 16:18:00;;;;;;;4.38;1.77;;;;;;;26.56;21.17;99893.69;1087060;54;20030;-81
2023/05/31 16:19:03;;;;;;;4.70;1.83;;;;;;;26.56;21.17;99885.47;1087123;54;20034;-81
2023/05/31 16:20:11;;;;;;;6.72;2.10;;;;;;;26.47;21.05;99885.91;1087196;47;20088;-86
2023/05/31 16:21:14;;;;;;;6.15;1.75;;;;;;;26.47;21.50;99885.91;1087264;46;20026;-84
2023/05/31 16:22:35;;;;;;;7.03;2.17;;;;;;;26.42;21.46;99885.84;1087301;54;20030;-84
2023/05/31 16:23:43;;;;;;;4.28;1.80;;;;;;;26.37;21.25;99882.19;1087164;54;20030;-81
2023/05/31 16:24:48;;;;;;;5.68;2.33;;;;;;;26.42;20.93;99876.81;1087183;46;20090;-81
2023/05/31 16:26:05;;;;;;;4.63;2.13;;;;;;;26.40;21.22;99876.22;1087108;46;20030;-82
2023/05/31 16:27:08;;;;;;;7.22;1.92;;;;;;;26.25;21.06;99871.38;1086941;46;20034;-83
2023/05/31 16:28:12;;;;;;;4.57;1.85;;;;;;;26.27;21.32;99880.16;1086924;47;20042;-82
2023/05/31 16:29:14;;;;;;;4.63;1.98;;;;;;;26.23;21.45;99881.75;1087686;39;20370;-85
2023/05/31 16:30:24;;;;;;;5.88;2.28;;;;;;;26.11;21.69;99881.84;1087342;54;20367;-82
2023/05/31 16:31:34;;;;;;;7.82;3.15;;;;;;;26.22;21.51;99877.34;1087212;46;20136;-83
2023/05/31 16:32:39;;;;;;;7.28;1.88;;;;;;;26.22;21.45;99877.34;1087353;47;20046;-84
2023/05/31 16:33:42;;;;;;;6.50;2.15;;;;;;;26.33;21.66;99872.84;1087422;46;20023;-83